Terminal Aerodrome Forecast
Issued by NWS

Home | Current Version | Previous Version | Graphics & Text | Print | Product List | Glossary On
Versions: 1 2 3 4 5 6 7 8 9 10 11 12 13 14 15
000
FTUS43 KMPX 281120
TAFRWF
TAF
KRWF 281120Z 2812/2912 34007KT P6SM BKN015
     FM281400 35009KT P6SM BKN020
     FM281700 36011KT P6SM BKN035
     FM290000 03007KT P6SM SCT070=

USA.gov is the U.S. government's official web portal to all federal, state and local government web resources and services.